Time;durP1;ratioP1;P1;durP2;ratioP2;P2;SDS_P1;SDS_P2;PMS_P1;PMS_P2;Temp;Humidity;BMP_temperature;BMP_pressure;BME280_temperature;BME280_humidity;BME280_pressure;Samples;Min_cycle;Max_cycle;Signal;HPM_P1;HPM_P2
2024/04/19 00:01:33;;;;;;;5.40;2.83;;;7.10;1.00;;;;;;5529860;25;20685;-59
2024/04/19 00:04:05;;;;;;;6.13;3.37;;;7.10;1.00;;;;;;5530089;25;20459;-58
2024/04/19 00:06:31;;;;;;;7.07;4.00;;;7.10;1.00;;;;;;5530448;25;20514;-59
2024/04/19 00:09:01;;;;;;;6.80;3.90;;;7.20;1.00;;;;;;5530671;25;20507;-59
2024/04/19 00:11:27;;;;;;;5.00;3.60;;;7.10;1.00;;;;;;5529860;25;20466;-58
2024/04/19 00:13:56;;;;;;;4.43;3.37;;;7.10;1.00;;;;;;5530023;25;20507;-58
2024/04/19 00:16:25;;;;;;;9.00;3.33;;;7.10;1.00;;;;;;5529988;25;20821;-57
2024/04/19 00:18:53;;;;;;;4.77;3.33;;;7.20;1.00;;;;;;5529907;25;20951;-58
2024/04/19 00:21:25;;;;;;;7.33;3.40;;;7.20;12.90;;;;;;5530022;25;20501;-58
2024/04/19 00:23:51;;;;;;;5.80;3.60;;;7.10;1.00;;;;;;5529890;25;20789;-58
2024/04/19 00:26:22;;;;;;;6.13;4.80;;;7.10;1.00;;;;;;5529714;25;20458;-58
2024/04/19 00:28:51;;;;;;;5.20;3.93;;;7.10;12.60;;;;;;5530034;25;20459;-58
2024/04/19 00:31:17;;;;;;;8.23;3.70;;;7.00;9.90;;;;;;5530100;25;20908;-58
2024/04/19 00:33:47;;;;;;;8.80;3.57;;;7.00;28.00;;;;;;5529710;25;20458;-58
2024/04/19 00:36:13;;;;;;;5.17;3.17;;;7.00;37.90;;;;;;5529688;25;20501;-59
2024/04/19 00:38:45;;;;;;;6.80;3.63;;;7.00;99.40;;;;;;5530013;25;20475;-59
2024/04/19 00:41:11;;;;;;;5.83;3.50;;;7.00;84.80;;;;;;5529979;25;20446;-58
2024/04/19 00:43:40;;;;;;;7.43;3.80;;;7.00;99.90;;;;;;5529762;25;20459;-58
2024/04/19 00:46:07;;;;;;;6.17;3.77;;;7.00;99.90;;;;;;5529483;25;20454;-58
2024/04/19 00:48:37;;;;;;;8.00;3.80;;;6.90;99.90;;;;;;5529448;25;20459;-58
2024/04/19 00:51:04;;;;;;;6.03;3.90;;;6.90;99.90;;;;;;5529678;25;20455;-58
2024/04/19 00:53:36;;;;;;;7.83;4.23;;;6.90;99.90;;;;;;5529562;25;20817;-59
2024/04/19 00:56:06;;;;;;;5.57;3.50;;;6.90;99.90;;;;;;5528965;25;20395;-59
2024/04/19 00:58:36;;;;;;;7.20;4.47;;;6.80;99.90;;;;;;5529422;25;20403;-59
2024/04/19 01:01:04;;;;;;;6.53;4.10;;;6.80;99.90;;;;;;5529872;25;20447;-60
2024/04/19 01:03:33;;;;;;;7.53;4.53;;;6.80;99.90;;;;;;5530178;25;20799;-60
2024/04/19 01:05:59;;;;;;;5.07;4.23;;;6.80;1.00;;;;;;5530128;25;20466;-61
2024/04/19 01:08:29;;;;;;;6.30;3.90;;;6.80;1.00;;;;;;5530475;25;20466;-60
2024/04/19 01:10:56;;;;;;;6.90;4.10;;;6.70;1.00;;;;;;5529311;25;20450;-62
2024/04/19 01:13:28;;;;;;;6.53;4.93;;;6.70;1.00;;;;;;5528252;25;20927;-62
2024/04/19 01:15:54;;;;;;;4.80;4.20;;;6.70;1.00;;;;;;5531936;25;20412;-62
2024/04/19 01:18:23;;;;;;;8.67;4.80;;;6.70;1.00;;;;;;5532087;25;20873;-62
2024/04/19 01:20:50;;;;;;;12.93;4.83;;;6.70;1.00;;;;;;5532141;25;20383;-63
2024/04/19 01:23:21;;;;;;;7.00;4.40;;;6.70;1.00;;;;;;5532111;25;20403;-62
2024/04/19 01:25:48;;;;;;;10.50;5.37;;;6.70;1.00;;;;;;5532109;25;20492;-62
2024/04/19 01:28:19;;;;;;;8.77;4.90;;;6.70;1.00;;;;;;5531813;25;20454;-61
2024/04/19 01:30:46;;;;;;;9.17;5.73;;;6.60;99.90;;;;;;5531994;25;20757;-62
2024/04/19 01:33:15;;;;;;;6.40;4.63;;;6.50;1.00;;;;;;5532059;25;20454;-61
2024/04/19 01:35:41;;;;;;;6.50;4.50;;;6.50;1.00;;;;;;5531640;25;20576;-60
2024/04/19 01:38:10;;;;;;;7.53;4.67;;;6.50;1.00;;;;;;5531819;25;20518;-61
2024/04/19 01:40:36;;;;;;;8.40;5.13;;;6.40;1.00;;;;;;5531801;25;20446;-61
2024/04/19 01:43:05;;;;;;;5.97;4.90;;;6.40;99.90;;;;;;5531449;25;20392;-62
2024/04/19 01:45:34;;;;;;;5.33;4.60;;;6.30;1.00;;;;;;5531884;25;20445;-62
2024/04/19 01:48:04;;;;;;;6.20;5.53;;;6.30;33.70;;;;;;5531559;25;20468;-62
2024/04/19 01:50:30;;;;;;;7.13;5.30;;;6.30;99.90;;;;;;5531642;25;20412;-63
2024/04/19 01:52:59;;;;;;;7.90;5.07;;;6.40;94.60;;;;;;5531795;25;20396;-63
2024/04/19 01:55:29;;;;;;;8.57;5.10;;;6.30;99.90;;;;;;5531784;25;20501;-63
2024/04/19 01:57:55;;;;;;;8.13;5.70;;;6.30;1.00;;;;;;5531212;25;20499;-63
2024/04/19 02:00:24;;;;;;;5.77;5.20;;;6.30;1.00;;;;;;5531522;25;20451;-63
2024/04/19 02:02:52;;;;;;;6.73;5.33;;;6.20;99.90;;;;;;5531720;25;20817;-65
2024/04/19 02:05:22;;;;;;;9.47;6.40;;;6.30;1.00;;;;;;5531628;25;20546;-63
2024/04/19 02:07:48;;;;;;;7.20;6.27;;;6.30;1.00;;;;;;5531339;25;20446;-65
2024/04/19 02:10:17;;;;;;;8.60;7.10;;;6.20;1.00;;;;;;5532404;25;20458;-67
2024/04/19 02:12:43;;;;;;;8.57;6.70;;;6.20;1.00;;;;;;5531993;25;20503;-65
2024/04/19 02:15:12;;;;;;;8.27;6.67;;;6.10;1.00;;;;;;5531589;25;20915;-66
2024/04/19 02:17:39;;;;;;;7.90;6.00;;;6.00;1.00;;;;;;5531077;25;20459;-65
2024/04/19 02:20:10;;;;;;;8.40;6.67;;;6.00;99.90;;;;;;5531334;25;20470;-64
2024/04/19 02:22:37;;;;;;;7.33;6.00;;;5.90;99.90;;;;;;5531471;25;20833;-67
2024/04/19 02:25:06;;;;;;;8.90;5.83;;;5.90;99.90;;;;;;5531431;25;20469;-65
2024/04/19 02:33:07;;;;;;;8.30;5.50;;;5.90;1.00;;;;;;5534874;26;20781;-66
2024/04/19 02:35:38;;;;;;;9.27;7.10;;;5.90;1.00;;;;;;5531811;25;20511;-65
2024/04/19 02:38:07;;;;;;;8.17;7.30;;;5.90;1.00;;;;;;5530835;25;20489;-65
2024/04/19 02:40:34;;;;;;;8.70;7.57;;;5.80;1.00;;;;;;5531333;25;20486;-67
2024/04/19 02:43:02;;;;;;;10.87;8.40;;;5.80;99.90;;;;;;5531183;25;20388;-65
2024/04/19 02:45:31;;;;;;;9.63;7.40;;;5.80;99.90;;;;;;5531621;25;20829;-67
2024/04/19 02:48:00;;;;;;;9.03;7.80;;;5.80;1.00;;;;;;5531300;25;20463;-66
2024/04/19 02:50:29;;;;;;;8.00;7.10;;;5.70;99.90;;;;;;5530827;25;20572;-64
2024/04/19 02:53:01;;;;;;;13.23;8.23;;;5.70;1.00;;;;;;5530847;25;20461;-64
2024/04/19 02:55:30;;;;;;;9.60;8.37;;;5.80;1.00;;;;;;5531049;25;20431;-64
2024/04/19 02:57:58;;;;;;;9.40;8.50;;;5.70;1.00;;;;;;5530797;25;20454;-69
2024/04/19 03:00:27;;;;;;;12.90;9.90;;;5.70;1.00;;;;;;5530787;25;20462;-65
2024/04/19 03:02:56;;;;;;;10.30;9.20;;;5.70;99.90;;;;;;5530753;25;20741;-64
2024/04/19 03:05:25;;;;;;;11.60;9.57;;;5.70;1.00;;;;;;5530977;25;20931;-66
2024/04/19 03:07:54;;;;;;;13.00;10.13;;;5.70;99.90;;;;;;5530674;25;20360;-68
2024/04/19 03:10:26;;;;;;;11.13;9.30;;;5.70;99.90;;;;;;5530609;25;20455;-66
2024/04/19 03:12:55;;;;;;;12.93;10.03;;;5.70;99.90;;;;;;5530937;25;20447;-69
2024/04/19 03:15:24;;;;;;;10.90;9.47;;;5.70;99.90;;;;;;5530244;25;20455;-66
2024/04/19 03:17:53;;;;;;;9.73;8.77;;;5.70;99.90;;;;;;5530221;25;20440;-71
2024/04/19 03:20:22;;;;;;;11.20;10.00;;;5.70;99.90;;;;;;5530025;25;20509;-64
2024/04/19 03:22:51;;;;;;;11.73;10.53;;;5.70;99.90;;;;;;5530340;25;20395;-63
2024/04/19 03:25:20;;;;;;;11.40;10.20;;;5.70;99.90;;;;;;5530515;25;20447;-65
2024/04/19 03:27:52;;;;;;;14.80;10.50;;;5.70;99.90;;;;;;5529983;25;20507;-64
2024/04/19 03:30:29;;;;;;;11.07;9.70;;;5.70;99.90;;;;;;5529975;25;20548;-67
2024/04/19 03:32:58;;;;;;;12.10;10.37;;;5.70;1.00;;;;;;5530554;25;20517;-64
2024/04/19 03:35:27;;;;;;;13.17;11.87;;;5.70;99.90;;;;;;5530265;25;20442;-69
2024/04/19 03:37:55;;;;;;;11.83;10.07;;;5.70;1.00;;;;;;5529234;25;20802;-64
2024/04/19 03:40:24;;;;;;;13.20;9.83;;;5.70;99.90;;;;;;5529983;25;20393;-65
2024/04/19 03:42:58;;;;;;;11.53;9.17;;;5.70;1.00;;;;;;5530067;25;20679;-66
2024/04/19 03:45:44;;;;;;;10.47;9.37;;;5.70;1.00;;;;;;5530182;25;20396;-65
2024/04/19 03:48:15;;;;;;;8.73;7.83;;;5.70;56.00;;;;;;5530088;25;20501;-66
2024/04/19 03:50:46;;;;;;;10.20;8.37;;;5.70;99.90;;;;;;5529935;25;20451;-66
2024/04/19 03:53:14;;;;;;;9.30;8.33;;;5.70;99.90;;;;;;5530062;25;20602;-65
2024/04/19 03:55:44;;;;;;;9.20;7.60;;;5.70;1.00;;;;;;5530409;25;20507;-69
2024/04/19 03:58:15;;;;;;;8.53;7.13;;;5.70;1.00;;;;;;5529963;25;20458;-66
2024/04/19 04:00:44;;;;;;;8.90;6.80;;;5.70;1.00;;;;;;5529782;25;20805;-64
2024/04/19 04:03:10;;;;;;;7.53;6.00;;;5.70;99.90;;;;;;5530757;25;20392;-67
2024/04/19 04:05:39;;;;;;;7.90;6.70;;;5.70;1.00;;;;;;5529864;25;20459;-66
2024/04/19 04:08:08;;;;;;;6.70;5.90;;;5.70;99.90;;;;;;5529602;25;20392;-63
2024/04/19 04:10:37;;;;;;;9.37;7.07;;;5.70;1.00;;;;;;5529704;25;20501;-64
2024/04/19 04:13:06;;;;;;;9.70;5.73;;;5.70;1.00;;;;;;5530350;25;20748;-61
2024/04/19 04:15:38;;;;;;;7.40;6.10;;;5.70;1.00;;;;;;5530600;25;20511;-63
2024/04/19 04:18:07;;;;;;;9.23;6.33;;;5.70;1.00;;;;;;5529770;25;20458;-64
2024/04/19 04:20:36;;;;;;;7.77;6.33;;;5.60;1.00;;;;;;5530459;25;20719;-64
2024/04/19 04:23:05;;;;;;;9.03;5.87;;;5.60;1.00;;;;;;5530545;25;20385;-65
2024/04/19 04:25:36;;;;;;;6.63;5.63;;;5.70;99.90;;;;;;5530350;25;20447;-65
2024/04/19 04:28:06;;;;;;;7.50;6.00;;;5.60;99.90;;;;;;5529501;25;20514;-65
2024/04/19 04:30:37;;;;;;;6.93;5.63;;;5.70;1.00;;;;;;5529886;25;20696;-64
2024/04/19 04:33:07;;;;;;;5.70;5.10;;;5.60;99.90;;;;;;5530753;25;20451;-65
2024/04/19 04:35:37;;;;;;;11.50;5.53;;;5.60;99.90;;;;;;5530703;25;20467;-65
2024/04/19 04:38:06;;;;;;;7.37;5.80;;;5.60;99.90;;;;;;5529281;25;20533;-65
2024/04/19 04:40:35;;;;;;;7.20;5.53;;;5.60;99.90;;;;;;5529646;25;20397;-66
2024/04/19 04:43:04;;;;;;;6.43;5.10;;;5.50;99.90;;;;;;5530109;25;20685;-67
2024/04/19 04:45:34;;;;;;;5.50;4.80;;;5.50;1.00;;;;;;5530301;25;20491;-66
2024/04/19 04:48:07;;;;;;;5.60;4.17;;;5.50;1.00;;;;;;5528391;25;20916;-67
2024/04/19 04:50:37;;;;;;;5.70;4.40;;;5.40;1.00;;;;;;5529033;25;20674;-65
2024/04/19 04:53:06;;;;;;;7.70;4.07;;;5.40;99.90;;;;;;5529042;25;20873;-66
2024/04/19 04:55:35;;;;;;;5.30;4.00;;;5.40;73.30;;;;;;5529696;25;20404;-68
2024/04/19 04:58:04;;;;;;;4.87;4.00;;;5.40;1.00;;;;;;5528977;25;20440;-69
2024/04/19 05:00:33;;;;;;;4.07;3.07;;;5.40;27.10;;;;;;5529360;25;20502;-68
2024/04/19 05:03:05;;;;;;;5.10;3.77;;;5.30;99.90;;;;;;5528263;25;20436;-65
2024/04/19 05:05:35;;;;;;;4.20;3.10;;;5.20;92.00;;;;;;5528999;25;20554;-65
2024/04/19 05:08:03;;;;;;;5.73;3.00;;;5.30;1.00;;;;;;5528119;25;20745;-65
2024/04/19 05:10:32;;;;;;;4.60;3.00;;;5.30;95.10;;;;;;5528483;25;20447;-62
2024/04/19 05:13:01;;;;;;;4.77;3.50;;;5.30;99.90;;;;;;5528547;25;20752;-66
2024/04/19 05:15:31;;;;;;;5.37;4.07;;;5.30;99.90;;;;;;5528569;25;20376;-65
2024/04/19 05:18:00;;;;;;;3.73;3.13;;;5.30;5.50;;;;;;5528386;25;20444;-65
2024/04/19 05:20:32;;;;;;;4.30;3.27;;;5.30;1.00;;;;;;5528420;25;20793;-66
2024/04/19 05:23:00;;;;;;;4.90;3.70;;;5.30;99.90;;;;;;5528831;25;20920;-67
2024/04/19 05:25:32;;;;;;;4.20;3.47;;;5.30;99.90;;;;;;5528341;25;20392;-65
2024/04/19 05:28:01;;;;;;;9.67;4.03;;;5.30;99.90;;;;;;5528080;25;20381;-63
2024/04/19 05:30:30;;;;;;;5.00;4.03;;;5.30;99.90;;;;;;5528067;25;20455;-61
2024/04/19 05:33:00;;;;;;;5.37;4.27;;;5.30;99.90;;;;;;5527768;25;20396;-64
2024/04/19 05:35:31;;;;;;;5.50;3.83;;;5.40;99.90;;;;;;5527499;25;20436;-67
2024/04/19 05:37:58;;;;;;;5.10;4.50;;;5.50;99.90;;;;;;5526973;25;20404;-69
2024/04/19 05:40:28;;;;;;;5.63;3.80;;;5.40;99.90;;;;;;5527706;25;20511;-67
2024/04/19 05:42:57;;;;;;;4.53;3.77;;;5.40;99.90;;;;;;5527687;25;20904;-68
2024/04/19 05:45:26;;;;;;;4.50;3.87;;;5.40;99.90;;;;;;5527858;25;20732;-67
2024/04/19 05:47:54;;;;;;;5.10;3.93;;;5.40;99.90;;;;;;5527355;25;20457;-66
2024/04/19 05:50:23;;;;;;;5.10;3.80;;;5.50;1.00;;;;;;5527684;25;20407;-68
2024/04/19 05:52:55;;;;;;;8.80;4.73;;;5.50;1.00;;;;;;5527344;25;20812;-71
2024/04/19 05:55:24;;;;;;;6.00;4.93;;;5.40;1.00;;;;;;5527503;25;20710;-69
2024/04/19 05:57:53;;;;;;;5.70;4.53;;;5.40;99.90;;;;;;5523768;25;20508;-66
2024/04/19 06:00:22;;;;;;;5.70;5.10;;;5.50;99.90;;;;;;5527370;25;20439;-65
2024/04/19 06:02:51;;;;;;;5.10;4.60;;;5.50;1.00;;;;;;5531340;25;20679;-69
2024/04/19 06:05:20;;;;;;;4.77;4.10;;;5.50;1.00;;;;;;5531359;25;20523;-68
2024/04/19 06:07:49;;;;;;;5.53;4.60;;;5.60;1.00;;;;;;5531022;25;20396;-68
2024/04/19 06:10:20;;;;;;;4.37;3.97;;;5.50;1.00;;;;;;5531301;25;20403;-67
2024/04/19 06:12:49;;;;;;;4.20;3.80;;;5.60;1.00;;;;;;5531411;25;20392;-69
2024/04/19 06:15:19;;;;;;;4.37;3.97;;;5.60;99.20;;;;;;5531243;25;20423;-68
2024/04/19 06:17:48;;;;;;;4.33;3.70;;;5.60;1.00;;;;;;5531281;25;20501;-69
2024/04/19 06:20:17;;;;;;;3.97;3.57;;;5.60;1.00;;;;;;5530945;25;20914;-70
2024/04/19 06:22:46;;;;;;;4.40;4.00;;;5.60;99.90;;;;;;5531042;25;20388;-70
2024/04/19 06:25:15;;;;;;;4.47;4.07;;;5.70;1.00;;;;;;5531331;25;20372;-68
2024/04/19 06:27:46;;;;;;;4.33;3.70;;;5.60;1.00;;;;;;5530953;25;20462;-67
2024/04/19 06:30:15;;;;;;;4.03;3.63;;;5.60;98.10;;;;;;5531975;25;20498;-72
2024/04/19 06:32:46;;;;;;;4.83;3.73;;;5.60;6.00;;;;;;5531018;25;20601;-69
2024/04/19 06:35:18;;;;;;;3.80;3.43;;;5.60;1.00;;;;;;5530437;25;20380;-69
2024/04/19 06:37:49;;;;;;;4.00;3.60;;;5.70;99.90;;;;;;5530781;25;20502;-70
2024/04/19 06:40:18;;;;;;;4.10;3.60;;;5.80;99.90;;;;;;5530705;25;20451;-69
2024/04/19 06:42:50;;;;;;;5.60;3.07;;;5.80;99.90;;;;;;5530340;25;20497;-69
2024/04/19 06:45:17;;;;;;;3.70;3.07;;;5.70;99.90;;;;;;5530838;25;20436;-69
2024/04/19 06:47:46;;;;;;;3.87;2.80;;;5.70;99.90;;;;;;5530540;25;20447;-70
2024/04/19 06:50:15;;;;;;;3.30;2.83;;;5.70;99.90;;;;;;5530304;25;20454;-71
2024/04/19 06:52:44;;;;;;;3.20;2.90;;;5.70;99.90;;;;;;5530573;25;20450;-71
2024/04/19 06:55:13;;;;;;;3.90;3.30;;;5.70;99.90;;;;;;5530606;25;20483;-71
2024/04/19 06:57:42;;;;;;;3.80;3.13;;;5.70;99.90;;;;;;5530224;25;20455;-70
2024/04/19 07:00:15;;;;;;;3.87;3.20;;;5.80;1.00;;;;;;5529422;25;20534;-68
2024/04/19 07:02:44;;;;;;;3.80;2.93;;;5.90;1.00;;;;;;5528312;25;20491;-69
2024/04/19 07:05:13;;;;;;;15.40;4.47;;;5.90;1.00;;;;;;5530415;25;20806;-69
2024/04/19 07:07:45;;;;;;;4.13;2.97;;;5.90;1.00;;;;;;5530024;25;20787;-70
2024/04/19 07:10:14;;;;;;;3.63;3.30;;;5.90;1.00;;;;;;5529885;25;20551;-71
2024/04/19 07:12:43;;;;;;;3.40;2.77;;;6.00;1.00;;;;;;5529363;25;20463;-73
2024/04/19 07:15:15;;;;;;;3.93;3.17;;;6.00;1.00;;;;;;5530660;25;20443;-70
2024/04/19 07:17:44;;;;;;;4.20;3.60;;;6.00;1.00;;;;;;5529341;25;20523;-69
2024/04/19 07:20:13;;;;;;;4.40;3.30;;;6.10;1.00;;;;;;5529844;25;20515;-71
2024/04/19 07:22:42;;;;;;;4.13;3.50;;;6.20;46.40;;;;;;5530152;25;20448;-70
2024/04/19 07:25:12;;;;;;;3.80;3.30;;;6.30;50.00;;;;;;5530429;25;20503;-73
2024/04/19 07:27:41;;;;;;;3.73;3.17;;;6.40;90.10;;;;;;5530397;25;20454;-71
2024/04/19 07:30:11;;;;;;;3.57;3.17;;;6.40;99.90;;;;;;5529914;25;20550;-72
2024/04/19 07:32:43;;;;;;;4.13;2.87;;;6.40;99.90;;;;;;5530295;25;20462;-73
2024/04/19 07:35:12;;;;;;;4.87;3.10;;;6.40;99.90;;;;;;5529808;25;20450;-72
2024/04/19 07:37:41;;;;;;;3.77;3.10;;;6.30;99.90;;;;;;5530326;25;20613;-72
2024/04/19 07:40:11;;;;;;;4.53;3.33;;;6.30;99.90;;;;;;5532616;25;20502;-71
2024/04/19 07:42:40;;;;;;;4.53;3.60;;;6.40;99.90;;;;;;5529582;25;20883;-71
2024/04/19 07:45:09;;;;;;;7.50;3.03;;;6.50;99.90;;;;;;5529679;25;20687;-70
2024/04/19 07:47:38;;;;;;;4.50;3.80;;;6.50;99.90;;;;;;5529469;25;20932;-70
2024/04/19 07:50:10;;;;;;;4.60;3.90;;;6.60;99.90;;;;;;5529587;25;20496;-71
2024/04/19 07:52:39;;;;;;;5.03;4.40;;;6.60;99.90;;;;;;5528756;25;20980;-71
2024/04/19 07:55:09;;;;;;;6.20;5.00;;;6.70;99.90;;;;;;5529398;25;20550;-71
2024/04/19 07:57:38;;;;;;;5.90;5.13;;;6.70;99.90;;;;;;5530092;25;20396;-74
2024/04/19 08:00:15;;;;;;;6.60;5.30;;;6.80;99.90;;;;;;5531925;25;20455;-72
2024/04/19 08:02:44;;;;;;;6.17;5.57;;;6.80;99.90;;;;;;5529792;25;20499;-73
2024/04/19 08:05:17;;;;;;;6.37;5.77;;;6.80;99.90;;;;;;5529579;25;20732;-70
2024/04/19 08:07:46;;;;;;;15.50;13.90;;;6.90;99.90;;;;;;5529529;25;20393;-70
2024/04/19 08:10:16;;;;;;;10.07;9.10;;;7.00;99.90;;;;;;5530162;25;20396;-71
2024/04/19 08:12:45;;;;;;;8.07;6.87;;;7.00;99.90;;;;;;5530555;25;20401;-72
2024/04/19 08:15:15;;;;;;;7.73;7.00;;;7.00;99.90;;;;;;5529461;25;20400;-71
2024/04/19 08:17:44;;;;;;;12.53;8.63;;;7.00;99.90;;;;;;5529358;25;20495;-71
2024/04/19 08:20:16;;;;;;;11.33;10.27;;;7.00;99.90;;;;;;5529067;25;20904;-69
2024/04/19 08:22:46;;;;;;;15.53;14.17;;;7.00;99.90;;;;;;5528781;25;20510;-69
2024/04/19 08:25:15;;;;;;;16.47;15.17;;;7.20;99.90;;;;;;5529248;25;20395;-69
2024/04/19 08:27:41;;;;;;;13.70;12.50;;;7.30;99.90;;;;;;5529542;25;20865;-71
2024/04/19 08:30:13;;;;;;;9.60;8.70;;;7.40;99.90;;;;;;5528631;25;20593;-70
2024/04/19 08:32:43;;;;;;;11.70;10.70;;;7.40;99.90;;;;;;5528514;25;20550;-71
2024/04/19 08:35:12;;;;;;;9.60;8.70;;;7.50;99.90;;;;;;5528509;25;20483;-68
2024/04/19 08:37:44;;;;;;;10.37;9.30;;;7.50;99.90;;;;;;5528040;25;20565;-70
2024/04/19 08:40:14;;;;;;;10.00;8.50;;;7.60;99.90;;;;;;5529162;25;21043;-70
2024/04/19 08:42:44;;;;;;;10.20;9.20;;;7.70;99.90;;;;;;5528760;25;20448;-72
2024/04/19 08:45:16;;;;;;;8.80;7.93;;;7.80;99.90;;;;;;5528901;25;20499;-69
2024/04/19 08:47:46;;;;;;;9.00;8.10;;;7.80;99.90;;;;;;5529027;25;20494;-70
2024/04/19 08:50:16;;;;;;;9.80;8.90;;;7.80;99.90;;;;;;5528870;25;20895;-68
2024/04/19 08:52:48;;;;;;;8.97;8.17;;;7.80;99.90;;;;;;5528588;25;20494;-70
2024/04/19 08:55:19;;;;;;;9.00;8.10;;;7.80;99.90;;;;;;5528615;25;20446;-71
2024/04/19 08:57:48;;;;;;;13.40;12.20;;;7.70;99.90;;;;;;5529023;25;20509;-72
2024/04/19 09:00:18;;;;;;;10.70;9.63;;;7.80;99.90;;;;;;5529925;25;20447;-76
2024/04/19 09:02:47;;;;;;;15.00;13.60;;;7.90;99.90;;;;;;5529433;25;20571;-73
2024/04/19 09:05:16;;;;;;;10.97;9.97;;;7.90;99.90;;;;;;5531311;25;20408;-71
2024/04/19 09:07:48;;;;;;;12.03;10.90;;;7.90;99.90;;;;;;5528701;25;20396;-72
2024/04/19 09:10:17;;;;;;;17.27;15.47;;;8.00;99.90;;;;;;5528794;25;20798;-71
2024/04/19 09:12:46;;;;;;;11.33;10.33;;;7.90;99.90;;;;;;5528341;25;20491;-73
2024/04/19 09:15:15;;;;;;;11.40;10.20;;;8.00;99.90;;;;;;5528361;25;20399;-71
2024/04/19 09:17:45;;;;;;;9.77;8.83;;;8.00;99.90;;;;;;5528658;25;20462;-69
2024/04/19 09:20:15;;;;;;;11.40;10.27;;;8.10;99.90;;;;;;5528651;25;20447;-68
2024/04/19 09:22:44;;;;;;;9.67;7.90;;;8.10;99.90;;;;;;5528235;25;20396;-70
2024/04/19 09:25:16;;;;;;;11.30;9.90;;;8.20;99.90;;;;;;5529196;25;20964;-74
2024/04/19 09:27:47;;;;;;;7.30;6.60;;;8.20;99.90;;;;;;5529535;25;20431;-71
2024/04/19 09:30:16;;;;;;;8.27;7.53;;;8.20;99.90;;;;;;5533112;25;20585;-72
2024/04/19 09:32:45;;;;;;;10.10;9.00;;;8.20;99.90;;;;;;5532356;25;20964;-74
2024/04/19 09:35:15;;;;;;;8.50;6.60;;;8.30;99.90;;;;;;5531176;25;20458;-74
2024/04/19 09:37:45;;;;;;;9.80;7.20;;;8.30;99.90;;;;;;5529749;26;20809;-73
2024/04/19 09:40:17;;;;;;;7.37;6.67;;;8.30;99.90;;;;;;5532903;25;20493;-72
2024/04/19 09:42:50;;;;;;;9.50;6.90;;;8.40;99.90;;;;;;5531305;25;20539;-74
2024/04/19 09:45:23;;;;;;;7.10;6.50;;;8.40;99.90;;;;;;5529867;25;20499;-72
2024/04/19 09:47:56;;;;;;;7.20;5.50;;;8.40;99.90;;;;;;5529329;25;20447;-71
2024/04/19 09:50:32;;;;;;;5.90;5.30;;;8.40;99.90;;;;;;5528907;25;20447;-70
2024/04/19 09:53:05;;;;;;;6.50;5.80;;;8.40;99.90;;;;;;5531386;25;20450;-72
2024/04/19 09:55:44;;;;;;;18.30;4.67;;;8.40;99.90;;;;;;5531031;25;20442;-70
2024/04/19 09:58:14;;;;;;;3.43;2.40;;;7.90;99.90;;;;;;5532132;25;20502;-73
2024/04/19 10:00:44;;;;;;;4.70;2.20;;;7.10;1.00;;;;;;5533267;25;20440;-70
2024/04/19 10:03:18;;;;;;;4.30;2.60;;;7.20;29.20;;;;;;5532992;25;20436;-70
2024/04/19 10:05:48;;;;;;;4.23;2.07;;;7.30;98.80;;;;;;5531374;25;20391;-71
2024/04/19 10:08:18;;;;;;;3.23;2.40;;;7.50;99.90;;;;;;5531295;25;20923;-70
2024/04/19 10:10:50;;;;;;;3.33;1.93;;;7.80;99.90;;;;;;5531539;25;20443;-72
2024/04/19 10:13:20;;;;;;;3.50;2.20;;;7.80;1.00;;;;;;5531676;25;20543;-72
2024/04/19 10:15:49;;;;;;;3.40;2.43;;;7.90;13.50;;;;;;5530922;25;20423;-71
2024/04/19 10:18:19;;;;;;;3.47;2.20;;;8.00;45.90;;;;;;5531090;25;20446;-71
2024/04/19 10:20:50;;;;;;;4.20;2.50;;;8.00;13.70;;;;;;5531197;25;20507;-71
2024/04/19 10:23:19;;;;;;;3.57;2.13;;;8.10;99.90;;;;;;5531523;25;20987;-72
2024/04/19 10:25:53;;;;;;;3.33;2.27;;;8.20;99.90;;;;;;5531185;25;20431;-71
2024/04/19 10:28:23;;;;;;;3.30;2.40;;;8.20;1.00;;;;;;5532831;25;20493;-71
2024/04/19 10:30:56;;;;;;;3.90;2.00;;;7.90;1.00;;;;;;5532073;25;20396;-66
2024/04/19 10:33:25;;;;;;;3.40;2.13;;;7.90;73.50;;;;;;5533827;25;20506;-74
2024/04/19 10:35:55;;;;;;;4.80;2.10;;;7.90;38.50;;;;;;5532279;25;20447;-74
2024/04/19 10:38:25;;;;;;;3.57;2.20;;;7.80;57.90;;;;;;5536173;25;20511;-73
2024/04/19 10:40:59;;;;;;;3.90;2.20;;;7.90;23.60;;;;;;5535565;25;20564;-73
2024/04/19 10:43:30;;;;;;;3.90;2.10;;;8.00;99.90;;;;;;5532552;25;20433;-70
2024/04/19 10:46:00;;;;;;;5.80;1.90;;;8.00;92.90;;;;;;5531022;25;20503;-72
2024/04/19 10:48:31;;;;;;;3.10;2.17;;;7.90;99.90;;;;;;5531235;25;20392;-73
2024/04/19 10:51:04;;;;;;;2.77;1.57;;;8.00;99.90;;;;;;5530350;25;20427;-70
2024/04/19 10:53:33;;;;;;;3.27;1.97;;;8.00;99.90;;;;;;5536910;25;20399;-71
2024/04/19 10:56:07;;;;;;;3.93;2.03;;;8.60;99.90;;;;;;5536276;25;20455;-70
2024/04/19 10:58:37;;;;;;;5.33;2.47;;;8.80;91.10;;;;;;5540250;25;20958;-71
2024/04/19 11:01:06;;;;;;;3.20;1.83;;;9.10;22.20;;;;;;5534870;25;20459;-69
2024/04/19 11:03:37;;;;;;;2.70;1.80;;;9.60;99.90;;;;;;5531951;25;20447;-69
2024/04/19 11:06:07;;;;;;;2.47;1.57;;;10.10;1.00;;;;;;5531105;25;20495;-67
2024/04/19 11:08:36;;;;;;;3.70;2.00;;;10.40;99.90;;;;;;5532240;25;20459;-71
2024/04/19 11:11:08;;;;;;;2.77;1.80;;;10.80;1.00;;;;;;5530377;25;20494;-68
2024/04/19 11:13:39;;;;;;;4.97;1.90;;;10.30;2.30;;;;;;5530408;25;20455;-69
2024/04/19 11:16:09;;;;;;;2.77;1.57;;;10.00;99.90;;;;;;5530441;25;20487;-70
2024/04/19 11:18:38;;;;;;;3.07;1.60;;;10.20;99.90;;;;;;5532220;25;20438;-70
2024/04/19 11:21:07;;;;;;;2.63;1.80;;;9.70;1.00;;;;;;5531943;25;20400;-70
2024/04/19 11:23:37;;;;;;;3.00;1.93;;;9.80;99.90;;;;;;5533792;25;20467;-69
2024/04/19 11:26:09;;;;;;;3.33;1.80;;;9.80;99.90;;;;;;5532954;25;20455;-69
2024/04/19 11:28:39;;;;;;;3.80;2.30;;;9.40;99.90;;;;;;5532191;25;20472;-71
2024/04/19 11:31:12;;;;;;;3.87;2.30;;;9.40;99.90;;;;;;5528429;25;20407;-67
2024/04/19 11:33:41;;;;;;;3.47;1.77;;;9.40;99.90;;;;;;5527575;25;20462;-70
2024/04/19 11:36:11;;;;;;;4.70;2.30;;;9.10;1.00;;;;;;5527303;25;20404;-70
2024/04/19 11:38:41;;;;;;;3.60;2.43;;;9.30;1.00;;;;;;5526521;25;20416;-69
2024/04/19 11:41:15;;;;;;;3.17;1.90;;;9.20;99.90;;;;;;5528619;25;20779;-71
2024/04/19 11:43:44;;;;;;;3.67;2.20;;;9.40;99.90;;;;;;5529999;25;20504;-69
2024/04/19 11:46:20;;;;;;;3.60;2.40;;;9.40;99.90;;;;;;5530429;25;20447;-70
2024/04/19 11:48:49;;;;;;;4.87;3.30;;;10.00;99.90;;;;;;5531248;25;20467;-67
2024/04/19 11:51:21;;;;;;;5.20;2.70;;;10.70;99.90;;;;;;5529442;25;20896;-66
2024/04/19 11:53:50;;;;;;;3.67;2.10;;;11.40;64.10;;;;;;5528861;25;20471;-66
2024/04/19 11:56:23;;;;;;;2.60;1.70;;;11.40;1.00;;;;;;5526372;25;20458;-65
2024/04/19 11:58:54;;;;;;;3.73;2.20;;;11.50;99.90;;;;;;5526546;25;20444;-65
2024/04/19 12:01:25;;;;;;;3.70;2.20;;;11.40;99.90;;;;;;5527698;25;20753;-64
2024/04/19 12:03:54;;;;;;;2.93;1.87;;;11.20;40.70;;;;;;5526467;25;20907;-63
2024/04/19 12:06:24;;;;;;;2.90;2.03;;;11.80;99.90;;;;;;5527869;25;20792;-62
2024/04/19 12:08:54;;;;;;;3.30;2.13;;;11.80;99.90;;;;;;5528589;25;20392;-62
2024/04/19 12:11:26;;;;;;;2.97;1.73;;;11.90;1.00;;;;;;5526973;25;20455;-62
2024/04/19 12:13:57;;;;;;;3.60;1.97;;;11.30;99.90;;;;;;5526999;25;20504;-62
2024/04/19 12:16:26;;;;;;;2.50;1.60;;;10.80;1.00;;;;;;5526517;25;20388;-62
2024/04/19 12:18:55;;;;;;;3.33;1.90;;;11.00;99.90;;;;;;5527477;25;20963;-61
2024/04/19 12:21:25;;;;;;;3.13;1.90;;;10.70;99.90;;;;;;5527390;25;20451;-61
2024/04/19 12:23:55;;;;;;;2.73;1.90;;;10.80;1.00;;;;;;5527150;25;20454;-61
2024/04/19 12:26:27;;;;;;;4.70;2.40;;;10.60;1.00;;;;;;5529466;25;20430;-61
2024/04/19 12:28:56;;;;;;;5.30;2.83;;;10.50;99.90;;;;;;5529752;25;20862;-60
2024/04/19 12:31:25;;;;;;;3.43;3.00;;;10.20;1.00;;;;;;5529743;25;20403;-61
2024/04/19 12:33:55;;;;;;;5.60;3.20;;;10.00;99.90;;;;;;5529336;25;20493;-60
2024/04/19 12:36:21;;;;;;;4.10;2.67;;;10.60;99.90;;;;;;5529157;25;20447;-62
2024/04/19 12:38:51;;;;;;;3.20;2.80;;;11.20;99.90;;;;;;5529520;25;20511;-61
2024/04/19 12:41:20;;;;;;;4.90;2.77;;;11.50;1.00;;;;;;5529567;25;20482;-61
2024/04/19 12:43:53;;;;;;;4.60;2.73;;;11.20;1.00;;;;;;5529599;25;20446;-73
2024/04/19 12:46:23;;;;;;;2.90;1.80;;;10.50;99.90;;;;;;5529952;25;20690;-75
2024/04/19 12:48:58;;;;;;;2.50;1.30;;;9.60;1.00;;;;;;5529694;25;20493;-65
2024/04/19 12:51:30;;;;;;;2.80;1.40;;;8.70;21.70;;;;;;5529554;25;20499;-70
2024/04/19 12:53:59;;;;;;;3.40;1.83;;;8.10;1.00;;;;;;5529110;25;20506;-70
2024/04/19 12:56:31;;;;;;;2.90;1.53;;;7.90;63.80;;;;;;5528165;25;20442;-71
2024/04/19 12:59:04;;;;;;;2.40;1.30;;;7.90;42.80;;;;;;5528395;25;20458;-70
2024/04/19 13:01:33;;;;;;;2.30;1.50;;;7.70;99.90;;;;;;5529593;25;20564;-68
2024/04/19 13:04:04;;;;;;;4.57;1.33;;;7.80;99.90;;;;;;5528670;25;20964;-70
2024/04/19 13:06:35;;;;;;;2.40;1.50;;;8.00;1.00;;;;;;5528786;25;20518;-71
2024/04/19 13:09:06;;;;;;;3.10;1.80;;;8.20;99.90;;;;;;5525702;25;20455;-72
2024/04/19 13:11:36;;;;;;;3.10;1.70;;;8.40;1.00;;;;;;5525965;25;20445;-68
2024/04/19 13:14:08;;;;;;;2.90;1.80;;;8.50;99.90;;;;;;5527867;25;20455;-71
2024/04/19 13:16:37;;;;;;;2.87;1.70;;;8.50;1.00;;;;;;5525592;25;20494;-68